Time,TemperatureF,DewpointF,PressureIn,WindDirection,WindDirectionDegrees,WindSpeedMPH,WindSpeedGustMPH,Humidity,HourlyPrecipIn,Conditions,Clouds,dailyrainin,SoftwareType,DateUTC
2013-04-12 00:01:00,55.0,51.0,29.78,SE,131,3.0,10.0,86,0.00,,,0.00,,2013-04-12 07:01:00,
2013-04-12 00:11:00,55.0,51.0,29.78,SE,131,3.0,10.0,86,0.00,,,0.00,,2013-04-12 07:11:00,
2013-04-12 00:22:00,55.0,51.0,29.78,SSE,147,5.0,11.0,86,0.00,,,0.00,,2013-04-12 07:22:00,
2013-04-12 00:32:00,55.0,51.0,29.78,SE,124,4.0,12.0,86,0.00,,,0.00,,2013-04-12 07:32:00,
2013-04-12 00:42:00,55.0,51.0,29.78,SE,124,4.0,12.0,86,0.00,,,0.00,,2013-04-12 07:42:00,
2013-04-12 00:52:00,55.0,51.0,29.78,South,169,3.0,11.0,87,0.00,,,0.00,,2013-04-12 07:52:00,
2013-04-12 01:02:00,55.0,51.0,29.78,SSE,161,4.0,9.0,87,0.00,,,0.00,,2013-04-12 08:02:00,
2013-04-12 01:12:00,55.0,51.0,29.78,SSE,161,4.0,9.0,87,0.00,,,0.00,,2013-04-12 08:12:00,
2013-04-12 01:22:00,55.0,51.0,29.78,SSW,193,3.0,7.0,87,0.00,,,0.00,,2013-04-12 08:22:00,
2013-04-12 01:32:00,55.0,51.0,29.78,ESE,121,3.0,7.0,87,0.00,,,0.00,,2013-04-12 08:32:00,
2013-04-12 01:42:00,55.0,51.0,29.78,ESE,121,3.0,7.0,87,0.00,,,0.00,,2013-04-12 08:42:00,
2013-04-12 01:52:00,55.0,51.0,29.78,SE,144,4.0,8.0,87,0.00,,,0.00,,2013-04-12 08:52:00,
2013-04-12 02:02:00,55.0,51.0,29.78,South,178,4.0,9.0,87,0.00,,,0.00,,2013-04-12 09:02:00,
2013-04-12 02:12:00,55.0,51.0,29.78,South,178,4.0,9.0,87,0.00,,,0.00,,2013-04-12 09:12:00,
2013-04-12 02:22:00,55.0,51.0,29.77,SSE,166,5.0,9.0,87,0.00,,,0.00,,2013-04-12 09:22:00,
2013-04-12 02:32:00,55.0,51.0,29.77,SSE,157,4.0,10.0,87,0.00,,,0.00,,2013-04-12 09:32:00,
2013-04-12 02:43:00,55.0,51.0,29.77,SSE,157,4.0,10.0,87,0.00,,,0.00,,2013-04-12 09:43:00,
2013-04-12 02:52:00,55.0,51.0,29.76,SSE,162,5.0,11.0,87,0.00,,,0.00,,2013-04-12 09:52:00,
2013-04-12 03:02:00,55.0,51.0,29.76,SSE,162,5.0,11.0,87,0.00,,,0.00,,2013-04-12 10:02:00,
2013-04-12 03:12:00,55.0,51.0,29.76,SSE,162,5.0,11.0,87,0.00,,,0.00,,2013-04-12 10:12:00,
2013-04-12 03:22:00,55.0,51.0,29.76,SSE,163,5.0,9.0,86,0.00,,,0.00,,2013-04-12 10:22:00,
2013-04-12 03:33:00,55.0,51.0,29.76,South,173,4.0,9.0,86,0.00,,,0.00,,2013-04-12 10:33:00,
2013-04-12 03:42:00,55.0,51.0,29.76,South,173,4.0,9.0,86,0.00,,,0.00,,2013-04-12 10:42:00,
2013-04-12 03:52:00,55.0,51.0,29.76,ESE,122,4.0,11.0,85,0.00,,,0.00,,2013-04-12 10:52:00,
2013-04-12 04:02:00,55.0,51.0,29.76,South,183,2.0,8.0,85,0.00,,,0.00,,2013-04-12 11:02:00,
2013-04-12 04:12:00,55.0,51.0,29.76,South,183,2.0,8.0,85,0.00,,,0.00,,2013-04-12 11:12:00,
2013-04-12 04:22:00,55.0,51.0,29.77,South,176,3.0,7.0,85,0.00,,,0.00,,2013-04-12 11:22:00,
2013-04-12 04:32:00,55.0,51.0,29.77,South,171,2.0,6.0,85,0.00,,,0.00,,2013-04-12 11:32:00,
2013-04-12 04:42:00,55.0,51.0,29.77,South,171,2.0,6.0,85,0.00,,,0.00,,2013-04-12 11:42:00,
2013-04-12 04:52:00,55.0,50.0,29.76,SE,146,2.0,4.0,84,0.00,,,0.00,,2013-04-12 11:52:00,
2013-04-12 05:02:00,55.0,50.0,29.77,SSE,161,2.0,4.0,84,0.00,,,0.00,,2013-04-12 12:02:00,
2013-04-12 05:12:00,55.0,50.0,29.77,SSE,161,2.0,4.0,84,0.00,,,0.00,,2013-04-12 12:12:00,
2013-04-12 05:22:00,55.0,50.0,29.76,South,183,3.0,6.0,84,0.00,,,0.00,,2013-04-12 12:22:00,
2013-04-12 05:32:00,55.0,50.0,29.76,SE,134,2.0,4.0,84,0.00,,,0.00,,2013-04-12 12:32:00,
2013-04-12 05:42:00,55.0,50.0,29.76,SE,134,2.0,4.0,84,0.00,,,0.00,,2013-04-12 12:42:00,
2013-04-12 05:52:00,55.0,50.0,29.76,ESE,119,2.0,7.0,84,0.00,,,0.00,,2013-04-12 12:52:00,
2013-04-12 06:12:00,55.0,50.0,29.75,ESE,109,1.0,5.0,84,0.00,,,0.00,,2013-04-12 13:12:00,
2013-04-12 06:22:00,55.0,51.0,29.75,SE,137,1.0,5.0,85,0.00,,,0.00,,2013-04-12 13:22:00,
2013-04-12 06:32:00,55.0,51.0,29.75,SSE,168,1.0,3.0,85,0.00,,,0.00,,2013-04-12 13:32:00,
2013-04-12 06:42:00,55.0,51.0,29.75,SSE,168,1.0,3.0,85,0.00,,,0.00,,2013-04-12 13:42:00,
2013-04-12 06:52:00,55.0,51.0,29.76,East,90,3.0,8.0,85,0.00,,,0.00,,2013-04-12 13:52:00,
2013-04-12 07:02:00,55.0,50.0,29.75,ENE,75,2.0,4.0,84,0.00,,,0.00,,2013-04-12 14:02:00,
2013-04-12 07:12:00,55.0,50.0,29.75,ENE,75,2.0,4.0,84,0.00,,,0.00,,2013-04-12 14:12:00,
2013-04-12 07:22:00,55.0,50.0,29.76,East,90,0.0,2.0,84,0.00,,,0.00,,2013-04-12 14:22:00,
2013-04-12 07:32:00,55.0,50.0,29.78,WNW,283,1.0,3.0,84,0.00,,,0.00,,2013-04-12 14:32:00,
2013-04-12 07:42:00,55.0,50.0,29.78,WNW,283,1.0,3.0,84,0.00,,,0.00,,2013-04-12 14:42:00,
2013-04-12 07:52:00,56.0,51.0,29.79,NW,326,0.0,5.0,83,0.00,,,0.00,,2013-04-12 14:52:00,
2013-04-12 08:02:00,56.0,51.0,29.79,NNW,332,1.0,5.0,83,0.00,,,0.00,,2013-04-12 15:02:00,
2013-04-12 08:12:00,56.0,51.0,29.79,NNW,332,1.0,5.0,83,0.00,,,0.00,,2013-04-12 15:12:00,
2013-04-12 08:22:00,56.0,51.0,29.79,NNW,332,1.0,5.0,83,0.00,,,0.00,,2013-04-12 15:22:00,
2013-04-12 08:33:00,56.0,51.0,29.80,NNW,342,0.0,4.0,83,0.00,,,0.00,,2013-04-12 15:33:00,
2013-04-12 08:43:00,56.0,51.0,29.80,NNW,342,0.0,4.0,83,0.00,,,0.00,,2013-04-12 15:43:00,
2013-04-12 08:53:00,56.0,51.0,29.80,NNE,19,0.0,6.0,83,0.00,,,0.00,,2013-04-12 15:53:00,
2013-04-12 09:03:00,56.0,51.0,29.80,NE,36,0.0,6.0,82,0.00,,,0.00,,2013-04-12 16:03:00,
2013-04-12 09:13:00,56.0,51.0,29.80,NE,36,0.0,6.0,82,0.00,,,0.00,,2013-04-12 16:13:00,
2013-04-12 09:22:00,57.0,51.0,29.80,NW,311,4.0,8.0,80,0.00,,,0.00,,2013-04-12 16:22:00,
2013-04-12 09:33:00,58.0,52.0,29.80,NNE,28,1.0,4.0,80,0.00,,,0.00,,2013-04-12 16:33:00,
2013-04-12 09:42:00,58.0,52.0,29.80,NNE,28,1.0,4.0,80,0.00,,,0.00,,2013-04-12 16:42:00,
2013-04-12 09:52:00,59.0,52.0,29.81,North,9,0.0,5.0,78,0.00,,,0.00,,2013-04-12 16:52:00,
2013-04-12 10:03:00,60.0,52.0,29.81,NNW,338,2.0,6.0,76,0.00,,,0.00,,2013-04-12 17:03:00,
2013-04-12 10:12:00,60.0,52.0,29.81,NNW,338,2.0,6.0,76,0.00,,,0.00,,2013-04-12 17:12:00,
2013-04-12 10:22:00,61.0,52.0,29.82,WNW,282,3.0,10.0,73,0.00,,,0.00,,2013-04-12 17:22:00,
2013-04-12 10:32:00,63.0,52.0,29.81,WSW,252,1.0,6.0,68,0.00,,,0.00,,2013-04-12 17:32:00,
2013-04-12 10:44:00,63.0,52.0,29.81,WSW,252,1.0,6.0,68,0.00,,,0.00,,2013-04-12 17:44:00,
2013-04-12 10:54:00,64.0,53.0,29.81,WNW,284,4.0,7.0,67,0.00,,,0.00,,2013-04-12 17:54:00,
2013-04-12 11:06:00,64.0,53.0,29.81,West,267,4.0,8.0,68,0.00,,,0.00,,2013-04-12 18:06:00,
2013-04-12 11:14:00,64.0,53.0,29.81,West,267,4.0,8.0,68,0.00,,,0.00,,2013-04-12 18:14:00,
2013-04-12 12:32:00,65.0,53.0,29.80,SW,221,4.0,12.0,66,0.00,,,0.00,,2013-04-12 19:32:00,
2013-04-12 12:52:00,66.0,53.0,29.80,WSW,246,6.0,12.0,64,0.00,,,0.00,,2013-04-12 19:52:00,
2013-04-12 13:02:00,67.0,54.0,29.79,SW,236,6.0,11.0,63,0.00,,,0.00,,2013-04-12 20:02:00,
2013-04-12 13:12:00,67.0,54.0,29.79,SW,236,6.0,11.0,63,0.00,,,0.00,,2013-04-12 20:12:00,
2013-04-12 13:22:00,67.0,54.0,29.79,SW,221,6.0,11.0,64,0.00,,,0.00,,2013-04-12 20:22:00,
2013-04-12 13:32:00,66.0,54.0,29.79,WSW,243,7.0,13.0,65,0.00,,,0.00,,2013-04-12 20:32:00,
2013-04-12 13:42:00,66.0,54.0,29.79,WSW,243,7.0,13.0,65,0.00,,,0.00,,2013-04-12 20:42:00,
2013-04-12 13:52:00,66.0,54.0,29.78,WSW,240,7.0,11.0,65,0.00,,,0.00,,2013-04-12 20:52:00,
2013-04-12 14:02:00,66.0,54.0,29.78,West,261,6.0,14.0,65,0.00,,,0.00,,2013-04-12 21:02:00,
2013-04-12 14:11:00,66.0,54.0,29.78,West,261,6.0,14.0,65,0.00,,,0.00,,2013-04-12 21:11:00,
2013-04-12 14:21:00,66.0,54.0,29.78,West,259,5.0,12.0,65,0.00,,,0.00,,2013-04-12 21:21:00,
2013-04-12 14:32:00,67.0,54.0,29.78,WSW,238,7.0,12.0,63,0.00,,,0.00,,2013-04-12 21:32:00,
2013-04-12 14:42:00,67.0,54.0,29.78,WSW,238,7.0,12.0,63,0.00,,,0.00,,2013-04-12 21:42:00,
2013-04-12 14:52:00,66.0,54.0,29.78,SSW,207,7.0,11.0,65,0.00,,,0.00,,2013-04-12 21:52:00,
2013-04-12 15:02:00,66.0,53.0,29.78,SW,218,6.0,13.0,64,0.00,,,0.00,,2013-04-12 22:02:00,
2013-04-12 15:12:00,66.0,53.0,29.78,SW,218,6.0,13.0,64,0.00,,,0.00,,2013-04-12 22:12:00,
2013-04-12 15:22:00,65.0,53.0,29.77,WSW,237,7.0,12.0,64,0.00,,,0.00,,2013-04-12 22:22:00,
2013-04-12 15:32:00,66.0,54.0,29.76,WSW,254,5.0,10.0,65,0.00,,,0.00,,2013-04-12 22:32:00,
2013-04-12 15:42:00,66.0,54.0,29.76,WSW,254,5.0,10.0,65,0.00,,,0.00,,2013-04-12 22:42:00,
2013-04-12 15:52:00,66.0,54.0,29.76,South,169,4.0,9.0,65,0.00,,,0.00,,2013-04-12 22:52:00,
2013-04-12 16:03:00,66.0,55.0,29.76,West,265,5.0,11.0,67,0.00,,,0.00,,2013-04-12 23:03:00,
2013-04-12 16:12:00,66.0,55.0,29.76,West,265,5.0,11.0,67,0.00,,,0.00,,2013-04-12 23:12:00,
2013-04-12 16:22:00,65.0,54.0,29.75,SW,234,5.0,11.0,67,0.00,,,0.00,,2013-04-12 23:22:00,
2013-04-12 16:32:00,65.0,54.0,29.75,West,274,5.0,13.0,68,0.00,,,0.00,,2013-04-12 23:32:00,
2013-04-12 16:42:00,65.0,54.0,29.75,West,274,5.0,13.0,68,0.00,,,0.00,,2013-04-12 23:42:00,
2013-04-12 16:52:00,66.0,54.0,29.75,WSW,258,7.0,11.0,66,0.00,,,0.00,,2013-04-12 23:52:00,
2013-04-12 17:02:00,64.0,54.0,29.75,SW,223,5.0,10.0,69,0.00,,,0.00,,2013-04-13 00:02:00,
2013-04-12 17:12:00,64.0,54.0,29.75,SW,223,5.0,10.0,69,0.00,,,0.00,,2013-04-13 00:12:00,
2013-04-12 17:22:00,63.0,54.0,29.74,WSW,245,4.0,11.0,72,0.00,,,0.00,,2013-04-13 00:22:00,
2013-04-12 17:32:00,63.0,54.0,29.74,WSW,248,7.0,11.0,72,0.00,,,0.00,,2013-04-13 00:32:00,
2013-04-12 17:42:00,63.0,54.0,29.74,WSW,248,7.0,11.0,72,0.00,,,0.00,,2013-04-13 00:42:00,
2013-04-12 17:52:00,62.0,54.0,29.74,WSW,242,5.0,8.0,75,0.00,,,0.00,,2013-04-13 00:52:00,
2013-04-12 18:02:00,62.0,54.0,29.75,SSW,197,4.0,8.0,76,0.00,,,0.00,,2013-04-13 01:02:00,
2013-04-12 18:12:00,62.0,54.0,29.75,SSW,197,4.0,8.0,76,0.00,,,0.00,,2013-04-13 01:12:00,
2013-04-12 18:22:00,61.0,54.0,29.75,SSW,196,4.0,7.0,77,0.00,,,0.00,,2013-04-13 01:22:00,
2013-04-12 18:32:00,61.0,54.0,29.75,WSW,240,4.0,7.0,79,0.00,,,0.00,,2013-04-13 01:32:00,
2013-04-12 18:42:00,61.0,54.0,29.75,WSW,240,4.0,7.0,79,0.00,,,0.00,,2013-04-13 01:42:00,
2013-04-12 18:52:00,60.0,54.0,29.75,SSW,201,3.0,8.0,80,0.00,,,0.00,,2013-04-13 01:52:00,
2013-04-12 19:02:00,59.0,53.0,29.76,SW,219,4.0,8.0,81,0.00,,,0.00,,2013-04-13 02:02:00,
2013-04-12 19:12:00,59.0,53.0,29.76,SW,219,4.0,8.0,81,0.00,,,0.00,,2013-04-13 02:12:00,
2013-04-12 19:22:00,58.0,53.0,29.76,WSW,242,3.0,8.0,83,0.00,,,0.00,,2013-04-13 02:22:00,
2013-04-12 19:32:00,58.0,53.0,29.77,SSW,202,1.0,5.0,84,0.00,,,0.00,,2013-04-13 02:32:00,
2013-04-12 19:42:00,58.0,53.0,29.77,SSW,202,1.0,5.0,84,0.00,,,0.00,,2013-04-13 02:42:00,
2013-04-12 19:52:00,57.0,53.0,29.78,South,188,2.0,4.0,86,0.00,,,0.00,,2013-04-13 02:52:00,
2013-04-12 20:02:00,56.0,52.0,29.79,South,184,2.0,5.0,87,0.00,,,0.00,,2013-04-13 03:02:00,
2013-04-12 20:12:00,56.0,52.0,29.79,South,184,2.0,5.0,87,0.00,,,0.00,,2013-04-13 03:12:00,
2013-04-12 20:22:00,56.0,52.0,29.80,South,180,2.0,4.0,88,0.00,,,0.00,,2013-04-13 03:22:00,
2013-04-12 20:33:00,55.0,52.0,29.80,South,187,2.0,4.0,90,0.00,,,0.00,,2013-04-13 03:33:00,
2013-04-12 20:42:00,55.0,52.0,29.80,South,187,2.0,4.0,90,0.00,,,0.00,,2013-04-13 03:42:00,
2013-04-12 20:52:00,55.0,52.0,29.81,SSW,200,1.0,3.0,91,0.00,,,0.00,,2013-04-13 03:52:00,
2013-04-12 21:02:00,55.0,52.0,29.82,South,179,0.0,4.0,91,0.00,,,0.00,,2013-04-13 04:02:00,
2013-04-12 21:12:00,55.0,52.0,29.82,South,179,0.0,4.0,91,0.00,,,0.00,,2013-04-13 04:12:00,
2013-04-12 21:22:00,55.0,53.0,29.82,South,180,1.0,3.0,92,0.00,,,0.00,,2013-04-13 04:22:00,
2013-04-12 21:33:00,55.0,53.0,29.83,South,180,1.0,3.0,92,0.00,,,0.00,,2013-04-13 04:33:00,
2013-04-12 21:42:00,55.0,53.0,29.83,South,180,1.0,3.0,92,0.00,,,0.00,,2013-04-13 04:42:00,
2013-04-12 21:53:00,55.0,53.0,29.83,SSW,204,1.0,2.0,92,0.00,,,0.00,,2013-04-13 04:53:00,
2013-04-12 22:02:00,56.0,53.0,29.84,SSW,204,1.0,3.0,91,0.00,,,0.00,,2013-04-13 05:02:00,
2013-04-12 22:12:00,56.0,53.0,29.84,SSW,204,1.0,3.0,91,0.00,,,0.00,,2013-04-13 05:12:00,
2013-04-12 22:22:00,56.0,53.0,29.84,SSE,157,1.0,4.0,91,0.00,,,0.00,,2013-04-13 05:22:00,
2013-04-12 22:32:00,56.0,53.0,29.84,SW,231,1.0,4.0,91,0.00,,,0.00,,2013-04-13 05:32:00,
2013-04-12 22:42:00,56.0,53.0,29.84,SW,231,1.0,4.0,91,0.00,,,0.00,,2013-04-13 05:42:00,
2013-04-12 22:52:00,56.0,53.0,29.84,SSW,211,1.0,3.0,91,0.00,,,0.00,,2013-04-13 05:52:00,
2013-04-12 23:02:00,56.0,53.0,29.84,South,185,3.0,7.0,91,0.00,,,0.00,,2013-04-13 06:02:00,
2013-04-12 23:12:00,56.0,53.0,29.84,South,185,3.0,7.0,91,0.00,,,0.00,,2013-04-13 06:12:00,
2013-04-12 23:22:00,56.0,53.0,29.85,SSE,161,2.0,7.0,90,0.00,,,0.00,,2013-04-13 06:22:00,
2013-04-12 23:33:00,56.0,53.0,29.85,South,188,5.0,10.0,90,0.00,,,0.00,,2013-04-13 06:33:00,
2013-04-12 23:44:00,56.0,53.0,29.85,South,188,5.0,10.0,90,0.00,,,0.00,,2013-04-13 06:44:00,
2013-04-12 23:53:00,56.0,53.0,29.85,South,189,2.0,7.0,90,0.00,,,0.00,,2013-04-13 06:53:00,